OOCL Bangkok — VRME6 — position and weather

sailwx.info

Track history (hours):
 
Tides and Currents Weather Stations Pressure Air Temp Water Temp Dewpoint Dewpoint Depression Visibility Wind Speed Wind Dir Waves Ship Positions

OOCL Bangkok

Last reported at 2018-Jun-23 12:00 UTC. Time now 2018-Jun-23 15:40 UTC.
Position N 29°42' W 073°12'.

Length 366 m; draft 13.1 m.

Type: Cargo ship. MMSI: 477220200.

Wind from 230 at 7 knots

Barometer 1014.5 mb
Air temperature 26.5 ° C
Visibility: greater than 10.8 NM
Dewpoint 23.6 ° C
Water temperature 27.7 ° C

Date/timePositionNaut miles runAvg speedWind from/ knotsBaromVisibWave heightAir tempDewpointWater temp
2018-Jun-23 12:00N 29°42' W 073°12'23619.6 230 / 71014.510.8 26.523.627.7
2018-Jun-23 00:00N 25°48' W 072°42'62717.4 230 / 51014.810.8 29.527.429.0
2018-Jun-21 12:00N 15°54' W 076°18'42119.9 110 / 271012.010.8 27.025.628.2
2018-Jun-20 14:50N 09°43' W 079°43'716.5
2018-Jun-20 14:25N 09°37' W 079°46'716.4
2018-Jun-20 14:00N 09°31' W 079°50'816.3
2018-Jun-20 13:30N 09°24' W 079°54'2 4.0
2018-Jun-20 13:00N 09°22' W 079°53'0 0.4
2018-Jun-20 12:29N 09°22' W 079°53'0 0.0
2018-Jun-20 11:59N 09°22' W 079°53'0 0.0
2018-Jun-20 11:29N 09°22' W 079°53'0 0.0
2018-Jun-20 10:59N 09°22' W 079°53'0 0.0
2018-Jun-20 10:29N 09°22' W 079°53'0 0.0
2018-Jun-20 09:59N 09°22' W 079°53'0 0.0
2018-Jun-20 09:29N 09°22' W 079°53'0 0.0
2018-Jun-20 08:59N 09°22' W 079°53'0 0.0
2018-Jun-20 08:29N 09°22' W 079°53'0 0.0
2018-Jun-20 07:56N 09°22' W 079°53'0 0.0
2018-Jun-20 07:29N 09°22' W 079°53'0 0.0
2018-Jun-20 06:59N 09°22' W 079°53'0 0.0
2018-Jun-20 06:29N 09°22' W 079°53'0 0.0
2018-Jun-20 05:59N 09°22' W 079°53'0 0.0
2018-Jun-20 05:29N 09°22' W 079°53'0 0.0
2018-Jun-20 04:59N 09°22' W 079°53'0 0.0
2018-Jun-20 04:29N 09°22' W 079°53'0 0.0
2018-Jun-20 03:59N 09°22' W 079°53'0 0.0
2018-Jun-20 03:29N 09°22' W 079°53'0 0.0
2018-Jun-20 02:59N 09°22' W 079°53'0 0.0
2018-Jun-20 02:29N 09°22' W 079°53'0 0.0
2018-Jun-20 01:59N 09°22' W 079°53'0 0.0
2018-Jun-20 01:29N 09°22' W 079°53'0 0.0
2018-Jun-20 00:59N 09°22' W 079°53'0 0.0
2018-Jun-20 00:29N 09°22' W 079°53'0 0.0
2018-Jun-20 00:00N 09°22' W 079°53'0 0.6
2018-Jun-19 23:31N 09°22' W 079°54'3 6.0
2018-Jun-19 23:01N 09°25' W 079°54'3 5.1
2018-Jun-19 22:31N 09°23' W 079°55'4 7.0
2018-Jun-19 22:00N 09°19' W 079°55'2 5.0
2018-Jun-19 21:30N 09°17' W 079°55'0 0.8
2018-Jun-19 21:00N 09°17' W 079°55'0 0.0
2018-Jun-19 20:31N 09°17' W 079°55'0 0.5
2018-Jun-19 20:00N 09°16' W 079°55'0 0.0
2018-Jun-19 19:31N 09°16' W 079°55'0 0.5
2018-Jun-19 19:00N 09°16' W 079°55'0 0.0
2018-Jun-19 18:31N 09°16' W 079°55'0 0.5
2018-Jun-19 18:00N 09°16' W 079°55'0 0.8
2018-Jun-19 17:31N 09°15' W 079°55'0 0.8
2018-Jun-19 17:00N 09°15' W 079°55'2 4.8
2018-Jun-19 16:30N 09°13' W 079°55'3 6.4
2018-Jun-19 16:00N 09°11' W 079°52'  
2018-Jun-15 12:00N 14°42' W 101°54'25321.1 270 / 141008.310.8 27.024.128.7
2018-Jun-15 00:00N 16°24' W 105°54'24620.5 240 / 51008.510.8 28.025.226.2
2018-Jun-14 12:00N 18°06' W 109°48'37020.5 230 / 211005.510.8 23.018.326.7
2018-Jun-13 18:00N 22°30' W 114°24'   350 / 151009.010.8 24.015.822.2
Track history (hours):
 
Tides and Currents Weather Stations Pressure Air Temp Water Temp Dewpoint Dewpoint Depression Visibility Wind Speed Wind Dir Waves Ship Positions

OOCL Bangkok

Last reported at 2018-Jun-23 12:00 UTC. Time now 2018-Jun-23 15:40 UTC.
Position N 29°42' W 073°12'.

Length 366 m; draft 13.1 m.

Type: Cargo ship. MMSI: 477220200.

Wind from 230 at 7 knots

Barometer 1014.5 mb
Air temperature 26.5 ° C
Visibility: greater than 10.8 NM
Dewpoint 23.6 ° C
Water temperature 27.7 ° C

Date/timePositionNaut miles runAvg speedWind from/ knotsBaromVisibWave heightAir tempDewpointWater temp
2018-Jun-23 12:00N 29°42' W 073°12'23619.6 230 / 71014.510.8 26.523.627.7
2018-Jun-23 00:00N 25°48' W 072°42'62717.4 230 / 51014.810.8 29.527.429.0
2018-Jun-21 12:00N 15°54' W 076°18'42119.9 110 / 271012.010.8 27.025.628.2
2018-Jun-20 14:50N 09°43' W 079°43'716.5
2018-Jun-20 14:25N 09°37' W 079°46'716.4
2018-Jun-20 14:00N 09°31' W 079°50'816.3
2018-Jun-20 13:30N 09°24' W 079°54'2 4.0
2018-Jun-20 13:00N 09°22' W 079°53'0 0.4
2018-Jun-20 12:29N 09°22' W 079°53'0 0.0
2018-Jun-20 11:59N 09°22' W 079°53'0 0.0
2018-Jun-20 11:29N 09°22' W 079°53'0 0.0
2018-Jun-20 10:59N 09°22' W 079°53'0 0.0
2018-Jun-20 10:29N 09°22' W 079°53'0 0.0
2018-Jun-20 09:59N 09°22' W 079°53'0 0.0
2018-Jun-20 09:29N 09°22' W 079°53'0 0.0
2018-Jun-20 08:59N 09°22' W 079°53'0 0.0
2018-Jun-20 08:29N 09°22' W 079°53'0 0.0
2018-Jun-20 07:56N 09°22' W 079°53'0 0.0
2018-Jun-20 07:29N 09°22' W 079°53'0 0.0
2018-Jun-20 06:59N 09°22' W 079°53'0 0.0
2018-Jun-20 06:29N 09°22' W 079°53'0 0.0
2018-Jun-20 05:59N 09°22' W 079°53'0 0.0
2018-Jun-20 05:29N 09°22' W 079°53'0 0.0
2018-Jun-20 04:59N 09°22' W 079°53'0 0.0
2018-Jun-20 04:29N 09°22' W 079°53'0 0.0
2018-Jun-20 03:59N 09°22' W 079°53'0 0.0
2018-Jun-20 03:29N 09°22' W 079°53'0 0.0
2018-Jun-20 02:59N 09°22' W 079°53'0 0.0
2018-Jun-20 02:29N 09°22' W 079°53'0 0.0
2018-Jun-20 01:59N 09°22' W 079°53'0 0.0
2018-Jun-20 01:29N 09°22' W 079°53'0 0.0
2018-Jun-20 00:59N 09°22' W 079°53'0 0.0
2018-Jun-20 00:29N 09°22' W 079°53'0 0.0
2018-Jun-20 00:00N 09°22' W 079°53'0 0.6
2018-Jun-19 23:31N 09°22' W 079°54'3 6.0
2018-Jun-19 23:01N 09°25' W 079°54'3 5.1
2018-Jun-19 22:31N 09°23' W 079°55'4 7.0
2018-Jun-19 22:00N 09°19' W 079°55'2 5.0
2018-Jun-19 21:30N 09°17' W 079°55'0 0.8
2018-Jun-19 21:00N 09°17' W 079°55'0 0.0
2018-Jun-19 20:31N 09°17' W 079°55'0 0.5
2018-Jun-19 20:00N 09°16' W 079°55'0 0.0
2018-Jun-19 19:31N 09°16' W 079°55'0 0.5
2018-Jun-19 19:00N 09°16' W 079°55'0 0.0
2018-Jun-19 18:31N 09°16' W 079°55'0 0.5
2018-Jun-19 18:00N 09°16' W 079°55'0 0.8
2018-Jun-19 17:31N 09°15' W 079°55'0 0.8
2018-Jun-19 17:00N 09°15' W 079°55'2 4.8
2018-Jun-19 16:30N 09°13' W 079°55'3 6.4
2018-Jun-19 16:00N 09°11' W 079°52'  
2018-Jun-15 12:00N 14°42' W 101°54'25321.1 270 / 141008.310.8 27.024.128.7
2018-Jun-15 00:00N 16°24' W 105°54'24620.5 240 / 51008.510.8 28.025.226.2
2018-Jun-14 12:00N 18°06' W 109°48'37020.5 230 / 211005.510.8 23.018.326.7
2018-Jun-13 18:00N 22°30' W 114°24'   350 / 151009.010.8 24.015.822.2

Dump ship's entire track history